sensor_id;sensor_type;location;lat;lon;timestamp;P1;durP1;ratioP1;P2;durP2;ratioP2
75454;SDS011;64035;48.358;2.122;2023-02-28T00:00:33;8.52;;;2.65;;
75454;SDS011;64035;48.358;2.122;2023-02-28T00:01:38;6.85;;;2.72;;
75454;SDS011;64035;48.358;2.122;2023-02-28T00:02:42;5.72;;;2.28;;
75454;SDS011;64035;48.358;2.122;2023-02-28T00:03:46;7.63;;;2.13;;
75454;SDS011;64035;48.358;2.122;2023-02-28T00:04:49;6.50;;;2.78;;
75454;SDS011;64035;48.358;2.122;2023-02-28T00:05:55;6.80;;;2.53;;
75454;SDS011;64035;48.358;2.122;2023-02-28T00:06:58;7.60;;;2.92;;
75454;SDS011;64035;48.358;2.122;2023-02-28T00:08:01;7.13;;;2.40;;
75454;SDS011;64035;48.358;2.122;2023-02-28T00:09:04;6.13;;;2.30;;
75454;SDS011;64035;48.358;2.122;2023-02-28T00:10:08;6.85;;;2.42;;
75454;SDS011;64035;48.358;2.122;2023-02-28T00:11:14;8.60;;;2.78;;
75454;SDS011;64035;48.358;2.122;2023-02-28T00:12:18;6.78;;;2.92;;
75454;SDS011;64035;48.358;2.122;2023-02-28T00:13:21;6.85;;;2.38;;
75454;SDS011;64035;48.358;2.122;2023-02-28T00:14:24;6.60;;;2.60;;
75454;SDS011;64035;48.358;2.122;2023-02-28T00:15:27;7.38;;;2.67;;
75454;SDS011;64035;48.358;2.122;2023-02-28T00:16:30;6.15;;;2.65;;
75454;SDS011;64035;48.358;2.122;2023-02-28T00:17:33;7.20;;;2.40;;
75454;SDS011;64035;48.358;2.122;2023-02-28T00:18:37;7.63;;;2.60;;
75454;SDS011;64035;48.358;2.122;2023-02-28T00:19:40;8.20;;;2.50;;
75454;SDS011;64035;48.358;2.122;2023-02-28T00:20:43;7.43;;;2.83;;
75454;SDS011;64035;48.358;2.122;2023-02-28T00:21:46;6.45;;;2.50;;
75454;SDS011;64035;48.358;2.122;2023-02-28T00:22:51;7.35;;;2.70;;
75454;SDS011;64035;48.358;2.122;2023-02-28T00:23:55;6.07;;;2.40;;
75454;SDS011;64035;48.358;2.122;2023-02-28T00:24:58;7.85;;;2.60;;
75454;SDS011;64035;48.358;2.122;2023-02-28T00:26:01;7.25;;;2.60;;
75454;SDS011;64035;48.358;2.122;2023-02-28T00:27:05;7.13;;;2.63;;
75454;SDS011;64035;48.358;2.122;2023-02-28T00:28:08;7.03;;;2.85;;
75454;SDS011;64035;48.358;2.122;2023-02-28T00:29:11;5.22;;;2.22;;
75454;SDS011;64035;48.358;2.122;2023-02-28T00:30:15;6.28;;;2.50;;
75454;SDS011;64035;48.358;2.122;2023-02-28T00:31:20;6.63;;;2.70;;
75454;SDS011;64035;48.358;2.122;2023-02-28T00:32:24;7.53;;;2.53;;
75454;SDS011;64035;48.358;2.122;2023-02-28T00:33:27;7.43;;;2.72;;
75454;SDS011;64035;48.358;2.122;2023-02-28T00:34:30;7.28;;;2.83;;
75454;SDS011;64035;48.358;2.122;2023-02-28T00:35:34;7.28;;;3.00;;
75454;SDS011;64035;48.358;2.122;2023-02-28T00:36:37;7.60;;;2.88;;
75454;SDS011;64035;48.358;2.122;2023-02-28T00:37:41;9.27;;;3.10;;
75454;SDS011;64035;48.358;2.122;2023-02-28T00:38:45;8.10;;;2.88;;
75454;SDS011;64035;48.358;2.122;2023-02-28T00:39:48;9.50;;;3.05;;
75454;SDS011;64035;48.358;2.122;2023-02-28T00:40:52;7.43;;;2.70;;
75454;SDS011;64035;48.358;2.122;2023-02-28T00:41:56;6.82;;;2.72;;
75454;SDS011;64035;48.358;2.122;2023-02-28T00:42:58;7.25;;;2.78;;
75454;SDS011;64035;48.358;2.122;2023-02-28T00:44:02;8.30;;;2.70;;
75454;SDS011;64035;48.358;2.122;2023-02-28T00:45:05;7.05;;;2.80;;
75454;SDS011;64035;48.358;2.122;2023-02-28T00:46:08;7.95;;;2.80;;
75454;SDS011;64035;48.358;2.122;2023-02-28T00:47:11;7.93;;;2.88;;
75454;SDS011;64035;48.358;2.122;2023-02-28T00:48:15;7.28;;;2.90;;
75454;SDS011;64035;48.358;2.122;2023-02-28T00:50:22;7.10;;;2.60;;
75454;SDS011;64035;48.358;2.122;2023-02-28T00:51:24;5.88;;;2.83;;
75454;SDS011;64035;48.358;2.122;2023-02-28T00:52:27;7.63;;;2.85;;
75454;SDS011;64035;48.358;2.122;2023-02-28T00:53:31;7.88;;;3.20;;
75454;SDS011;64035;48.358;2.122;2023-02-28T00:55:38;7.55;;;3.22;;
75454;SDS011;64035;48.358;2.122;2023-02-28T00:56:40;7.15;;;3.00;;
75454;SDS011;64035;48.358;2.122;2023-02-28T00:57:43;7.93;;;3.22;;
75454;SDS011;64035;48.358;2.122;2023-02-28T00:58:46;9.68;;;3.45;;
75454;SDS011;64035;48.358;2.122;2023-02-28T00:59:49;11.10;;;3.38;;
75454;SDS011;64035;48.358;2.122;2023-02-28T01:00:53;10.13;;;3.70;;
75454;SDS011;64035;48.358;2.122;2023-02-28T01:02:59;8.68;;;3.40;;
75454;SDS011;64035;48.358;2.122;2023-02-28T01:04:03;8.05;;;2.75;;
75454;SDS011;64035;48.358;2.122;2023-02-28T01:05:06;9.00;;;3.63;;
75454;SDS011;64035;48.358;2.122;2023-02-28T01:07:14;8.25;;;3.67;;
75454;SDS011;64035;48.358;2.122;2023-02-28T01:08:18;7.50;;;3.55;;
75454;SDS011;64035;48.358;2.122;2023-02-28T01:09:21;8.00;;;3.42;;
75454;SDS011;64035;48.358;2.122;2023-02-28T01:10:24;7.80;;;3.30;;
75454;SDS011;64035;48.358;2.122;2023-02-28T01:11:28;7.72;;;3.38;;
75454;SDS011;64035;48.358;2.122;2023-02-28T01:12:31;8.60;;;3.10;;
75454;SDS011;64035;48.358;2.122;2023-02-28T01:13:33;10.35;;;3.67;;
75454;SDS011;64035;48.358;2.122;2023-02-28T01:14:36;8.35;;;3.47;;
75454;SDS011;64035;48.358;2.122;2023-02-28T01:15:40;8.52;;;3.63;;
75454;SDS011;64035;48.358;2.122;2023-02-28T01:16:47;10.52;;;3.72;;
75454;SDS011;64035;48.358;2.122;2023-02-28T01:17:50;8.77;;;3.70;;
75454;SDS011;64035;48.358;2.122;2023-02-28T01:18:53;8.02;;;3.83;;
75454;SDS011;64035;48.358;2.122;2023-02-28T01:19:57;11.20;;;3.83;;
75454;SDS011;64035;48.358;2.122;2023-02-28T01:21:20;8.55;;;3.65;;
75454;SDS011;64035;48.358;2.122;2023-02-28T01:22:24;10.32;;;3.60;;
75454;SDS011;64035;48.358;2.122;2023-02-28T01:23:27;11.32;;;4.00;;
75454;SDS011;64035;48.358;2.122;2023-02-28T01:24:30;9.10;;;3.45;;
75454;SDS011;64035;48.358;2.122;2023-02-28T01:25:36;8.32;;;3.40;;
75454;SDS011;64035;48.358;2.122;2023-02-28T01:26:41;11.93;;;3.88;;
75454;SDS011;64035;48.358;2.122;2023-02-28T01:27:44;9.50;;;3.95;;
75454;SDS011;64035;48.358;2.122;2023-02-28T01:28:48;8.88;;;3.70;;
75454;SDS011;64035;48.358;2.122;2023-02-28T01:29:53;9.73;;;3.72;;
75454;SDS011;64035;48.358;2.122;2023-02-28T01:30:56;8.52;;;3.45;;
75454;SDS011;64035;48.358;2.122;2023-02-28T01:31:59;8.93;;;3.53;;
75454;SDS011;64035;48.358;2.122;2023-02-28T01:33:02;9.13;;;3.88;;
75454;SDS011;64035;48.358;2.122;2023-02-28T01:34:05;11.88;;;3.42;;
75454;SDS011;64035;48.358;2.122;2023-02-28T01:35:08;11.48;;;3.92;;
75454;SDS011;64035;48.358;2.122;2023-02-28T01:36:12;8.38;;;3.40;;
75454;SDS011;64035;48.358;2.122;2023-02-28T01:37:18;8.20;;;3.70;;
75454;SDS011;64035;48.358;2.122;2023-02-28T01:38:21;8.82;;;3.42;;
75454;SDS011;64035;48.358;2.122;2023-02-28T01:39:25;10.10;;;3.80;;
75454;SDS011;64035;48.358;2.122;2023-02-28T01:40:29;7.40;;;3.17;;
75454;SDS011;64035;48.358;2.122;2023-02-28T01:41:33;8.75;;;3.63;;
75454;SDS011;64035;48.358;2.122;2023-02-28T01:42:37;8.32;;;3.58;;
75454;SDS011;64035;48.358;2.122;2023-02-28T01:46:34;7.72;;;3.30;;
75454;SDS011;64035;48.358;2.122;2023-02-28T01:47:41;8.45;;;3.20;;
75454;SDS011;64035;48.358;2.122;2023-02-28T01:49:28;6.70;;;3.25;;
75454;SDS011;64035;48.358;2.122;2023-02-28T01:50:19;7.85;;;3.20;;
75454;SDS011;64035;48.358;2.122;2023-02-28T01:52:34;8.73;;;3.45;;
75454;SDS011;64035;48.358;2.122;2023-02-28T01:53:39;11.25;;;3.47;;
75454;SDS011;64035;48.358;2.122;2023-02-28T01:54:48;9.95;;;3.60;;
75454;SDS011;64035;48.358;2.122;2023-02-28T01:55:54;8.38;;;3.50;;
75454;SDS011;64035;48.358;2.122;2023-02-28T01:57:02;7.05;;;3.00;;
75454;SDS011;64035;48.358;2.122;2023-02-28T01:58:09;7.85;;;3.30;;
75454;SDS011;64035;48.358;2.122;2023-02-28T01:59:13;8.30;;;3.10;;
75454;SDS011;64035;48.358;2.122;2023-02-28T02:00:24;8.30;;;3.03;;
75454;SDS011;64035;48.358;2.122;2023-02-28T02:01:30;8.20;;;3.05;;
75454;SDS011;64035;48.358;2.122;2023-02-28T02:02:34;9.18;;;3.25;;
75454;SDS011;64035;48.358;2.122;2023-02-28T02:03:39;7.68;;;3.25;;
75454;SDS011;64035;48.358;2.122;2023-02-28T02:04:44;7.32;;;3.10;;
75454;SDS011;64035;48.358;2.122;2023-02-28T02:05:53;9.75;;;3.63;;
75454;SDS011;64035;48.358;2.122;2023-02-28T02:06:56;7.97;;;2.90;;
75454;SDS011;64035;48.358;2.122;2023-02-28T02:08:03;7.63;;;2.85;;
75454;SDS011;64035;48.358;2.122;2023-02-28T02:09:08;9.05;;;3.35;;
75454;SDS011;64035;48.358;2.122;2023-02-28T02:11:36;8.65;;;2.83;;
75454;SDS011;64035;48.358;2.122;2023-02-28T02:15:41;7.80;;;2.65;;
75454;SDS011;64035;48.358;2.122;2023-02-28T02:16:56;6.53;;;2.45;;
75454;SDS011;64035;48.358;2.122;2023-02-28T02:18:12;7.20;;;2.60;;
75454;SDS011;64035;48.358;2.122;2023-02-28T02:20:46;6.18;;;2.70;;
75454;SDS011;64035;48.358;2.122;2023-02-28T02:31:50;6.28;;;2.42;;
75454;SDS011;64035;48.358;2.122;2023-02-28T02:34:24;7.25;;;2.53;;
75454;SDS011;64035;48.358;2.122;2023-02-28T02:37:02;6.25;;;2.30;;
75454;SDS011;64035;48.358;2.122;2023-02-28T02:38:19;8.45;;;2.50;;
75454;SDS011;64035;48.358;2.122;2023-02-28T02:42:28;6.80;;;2.15;;
75454;SDS011;64035;48.358;2.122;2023-02-28T02:43:40;11.95;;;2.67;;
75454;SDS011;64035;48.358;2.122;2023-02-28T02:44:48;6.65;;;2.50;;
75454;SDS011;64035;48.358;2.122;2023-02-28T02:46:02;6.88;;;2.30;;
75454;SDS011;64035;48.358;2.122;2023-02-28T02:47:12;6.68;;;2.30;;
75454;SDS011;64035;48.358;2.122;2023-02-28T02:48:20;7.13;;;2.60;;
75454;SDS011;64035;48.358;2.122;2023-02-28T02:49:29;6.20;;;2.42;;
75454;SDS011;64035;48.358;2.122;2023-02-28T02:50:42;7.00;;;2.35;;
75454;SDS011;64035;48.358;2.122;2023-02-28T02:51:49;6.50;;;2.55;;
75454;SDS011;64035;48.358;2.122;2023-02-28T02:52:57;8.15;;;2.78;;
75454;SDS011;64035;48.358;2.122;2023-02-28T02:54:05;7.22;;;2.30;;
75454;SDS011;64035;48.358;2.122;2023-02-28T02:55:16;7.80;;;2.30;;
75454;SDS011;64035;48.358;2.122;2023-02-28T02:56:24;8.93;;;2.30;;
75454;SDS011;64035;48.358;2.122;2023-02-28T02:57:35;7.28;;;2.50;;
75454;SDS011;64035;48.358;2.122;2023-02-28T02:58:43;4.55;;;2.05;;
75454;SDS011;64035;48.358;2.122;2023-02-28T02:59:49;7.03;;;2.50;;
75454;SDS011;64035;48.358;2.122;2023-02-28T03:00:57;6.05;;;1.95;;
75454;SDS011;64035;48.358;2.122;2023-02-28T03:02:03;5.57;;;2.30;;
75454;SDS011;64035;48.358;2.122;2023-02-28T03:03:09;7.05;;;2.65;;
75454;SDS011;64035;48.358;2.122;2023-02-28T03:04:16;6.43;;;2.40;;
75454;SDS011;64035;48.358;2.122;2023-02-28T03:05:43;5.93;;;2.10;;
75454;SDS011;64035;48.358;2.122;2023-02-28T03:06:48;6.75;;;2.78;;
75454;SDS011;64035;48.358;2.122;2023-02-28T03:07:58;8.48;;;2.30;;
75454;SDS011;64035;48.358;2.122;2023-02-28T03:09:01;7.20;;;2.40;;
75454;SDS011;64035;48.358;2.122;2023-02-28T03:10:25;6.68;;;2.05;;
75454;SDS011;64035;48.358;2.122;2023-02-28T03:11:40;7.07;;;2.10;;
75454;SDS011;64035;48.358;2.122;2023-02-28T03:12:49;6.53;;;2.20;;
75454;SDS011;64035;48.358;2.122;2023-02-28T03:14:11;6.30;;;2.30;;
75454;SDS011;64035;48.358;2.122;2023-02-28T03:15:32;6.10;;;2.45;;
75454;SDS011;64035;48.358;2.122;2023-02-28T03:18:32;4.75;;;1.83;;
75454;SDS011;64035;48.358;2.122;2023-02-28T03:19:51;6.13;;;2.33;;
75454;SDS011;64035;48.358;2.122;2023-02-28T03:21:12;6.20;;;2.20;;
75454;SDS011;64035;48.358;2.122;2023-02-28T03:22:26;5.95;;;2.13;;
75454;SDS011;64035;48.358;2.122;2023-02-28T03:23:45;5.63;;;2.38;;
75454;SDS011;64035;48.358;2.122;2023-02-28T03:26:13;6.68;;;2.20;;
75454;SDS011;64035;48.358;2.122;2023-02-28T03:28:42;5.35;;;2.00;;
75454;SDS011;64035;48.358;2.122;2023-02-28T03:30:39;6.85;;;2.42;;
75454;SDS011;64035;48.358;2.122;2023-02-28T03:31:30;4.60;;;1.88;;
75454;SDS011;64035;48.358;2.122;2023-02-28T03:32:57;6.60;;;2.17;;
75454;SDS011;64035;48.358;2.122;2023-02-28T03:34:08;4.93;;;1.88;;
75454;SDS011;64035;48.358;2.122;2023-02-28T03:35:34;8.20;;;2.20;;
75454;SDS011;64035;48.358;2.122;2023-02-28T03:36:47;5.88;;;1.98;;
75454;SDS011;64035;48.358;2.122;2023-02-28T03:38:00;6.65;;;2.30;;
75454;SDS011;64035;48.358;2.122;2023-02-28T03:39:16;6.78;;;2.00;;
75454;SDS011;64035;48.358;2.122;2023-02-28T03:40:23;7.20;;;2.30;;
75454;SDS011;64035;48.358;2.122;2023-02-28T03:42:48;5.78;;;2.10;;
75454;SDS011;64035;48.358;2.122;2023-02-28T03:44:01;6.55;;;2.10;;
75454;SDS011;64035;48.358;2.122;2023-02-28T03:45:10;6.47;;;1.90;;
75454;SDS011;64035;48.358;2.122;2023-02-28T03:46:18;4.90;;;1.92;;
75454;SDS011;64035;48.358;2.122;2023-02-28T03:47:29;7.68;;;2.50;;
75454;SDS011;64035;48.358;2.122;2023-02-28T03:48:44;8.38;;;2.25;;
75454;SDS011;64035;48.358;2.122;2023-02-28T03:49:53;4.93;;;1.90;;
75454;SDS011;64035;48.358;2.122;2023-02-28T03:51:00;5.80;;;2.22;;
75454;SDS011;64035;48.358;2.122;2023-02-28T03:52:06;4.93;;;2.03;;
75454;SDS011;64035;48.358;2.122;2023-02-28T03:53:15;5.57;;;2.03;;
75454;SDS011;64035;48.358;2.122;2023-02-28T03:54:31;5.80;;;2.00;;
75454;SDS011;64035;48.358;2.122;2023-02-28T03:55:46;7.53;;;2.60;;
75454;SDS011;64035;48.358;2.122;2023-02-28T03:57:17;5.55;;;2.00;;
75454;SDS011;64035;48.358;2.122;2023-02-28T03:58:37;6.30;;;2.15;;
75454;SDS011;64035;48.358;2.122;2023-02-28T03:59:53;6.18;;;2.38;;
75454;SDS011;64035;48.358;2.122;2023-02-28T04:02:11;4.30;;;1.70;;
75454;SDS011;64035;48.358;2.122;2023-02-28T04:03:15;9.18;;;2.15;;
75454;SDS011;64035;48.358;2.122;2023-02-28T04:04:18;5.90;;;2.30;;
75454;SDS011;64035;48.358;2.122;2023-02-28T04:05:21;6.60;;;2.35;;
75454;SDS011;64035;48.358;2.122;2023-02-28T04:07:29;9.70;;;2.50;;
75454;SDS011;64035;48.358;2.122;2023-02-28T04:08:32;5.22;;;1.90;;
75454;SDS011;64035;48.358;2.122;2023-02-28T04:09:35;5.93;;;1.83;;
75454;SDS011;64035;48.358;2.122;2023-02-28T04:10:38;6.07;;;2.00;;
75454;SDS011;64035;48.358;2.122;2023-02-28T04:11:51;5.53;;;2.05;;
75454;SDS011;64035;48.358;2.122;2023-02-28T04:12:55;6.25;;;2.30;;
75454;SDS011;64035;48.358;2.122;2023-02-28T04:13:58;7.38;;;2.35;;
75454;SDS011;64035;48.358;2.122;2023-02-28T04:15:01;6.95;;;2.20;;
75454;SDS011;64035;48.358;2.122;2023-02-28T04:16:06;6.63;;;1.85;;
75454;SDS011;64035;48.358;2.122;2023-02-28T04:17:14;6.90;;;2.30;;
75454;SDS011;64035;48.358;2.122;2023-02-28T04:18:18;4.50;;;1.83;;
75454;SDS011;64035;48.358;2.122;2023-02-28T04:19:21;5.22;;;2.30;;
75454;SDS011;64035;48.358;2.122;2023-02-28T04:20:24;8.18;;;2.30;;
75454;SDS011;64035;48.358;2.122;2023-02-28T04:21:31;6.57;;;2.22;;
75454;SDS011;64035;48.358;2.122;2023-02-28T04:22:36;5.93;;;2.15;;
75454;SDS011;64035;48.358;2.122;2023-02-28T04:23:40;6.07;;;1.98;;
75454;SDS011;64035;48.358;2.122;2023-02-28T04:24:43;6.10;;;2.20;;
75454;SDS011;64035;48.358;2.122;2023-02-28T04:25:46;7.10;;;2.10;;
75454;SDS011;64035;48.358;2.122;2023-02-28T04:26:50;6.28;;;2.10;;
75454;SDS011;64035;48.358;2.122;2023-02-28T04:27:54;6.80;;;2.25;;
75454;SDS011;64035;48.358;2.122;2023-02-28T04:28:58;5.47;;;1.85;;
75454;SDS011;64035;48.358;2.122;2023-02-28T04:30:01;7.25;;;2.00;;
75454;SDS011;64035;48.358;2.122;2023-02-28T04:31:05;6.70;;;2.00;;
75454;SDS011;64035;48.358;2.122;2023-02-28T04:32:08;4.13;;;1.73;;
75454;SDS011;64035;48.358;2.122;2023-02-28T04:33:11;5.32;;;1.85;;
75454;SDS011;64035;48.358;2.122;2023-02-28T04:34:14;6.00;;;1.88;;
75454;SDS011;64035;48.358;2.122;2023-02-28T04:35:18;6.85;;;2.40;;
75454;SDS011;64035;48.358;2.122;2023-02-28T04:36:21;4.60;;;2.00;;
75454;SDS011;64035;48.358;2.122;2023-02-28T04:37:26;5.63;;;2.13;;
75454;SDS011;64035;48.358;2.122;2023-02-28T04:38:35;6.75;;;2.13;;
75454;SDS011;64035;48.358;2.122;2023-02-28T04:39:39;5.43;;;2.10;;
75454;SDS011;64035;48.358;2.122;2023-02-28T04:40:43;5.28;;;1.98;;
75454;SDS011;64035;48.358;2.122;2023-02-28T04:41:46;5.13;;;1.88;;
75454;SDS011;64035;48.358;2.122;2023-02-28T04:42:49;4.13;;;1.90;;
75454;SDS011;64035;48.358;2.122;2023-02-28T04:43:52;4.20;;;1.60;;
75454;SDS011;64035;48.358;2.122;2023-02-28T04:44:55;7.10;;;2.28;;
75454;SDS011;64035;48.358;2.122;2023-02-28T04:46:00;6.82;;;2.20;;
75454;SDS011;64035;48.358;2.122;2023-02-28T04:47:06;6.85;;;2.40;;
75454;SDS011;64035;48.358;2.122;2023-02-28T04:48:08;5.78;;;2.10;;
75454;SDS011;64035;48.358;2.122;2023-02-28T04:49:11;5.78;;;2.13;;
75454;SDS011;64035;48.358;2.122;2023-02-28T04:50:15;6.18;;;2.03;;
75454;SDS011;64035;48.358;2.122;2023-02-28T04:51:19;6.25;;;2.17;;
75454;SDS011;64035;48.358;2.122;2023-02-28T04:52:22;5.35;;;1.95;;
75454;SDS011;64035;48.358;2.122;2023-02-28T04:53:25;6.93;;;2.40;;
75454;SDS011;64035;48.358;2.122;2023-02-28T04:54:28;6.88;;;2.05;;
75454;SDS011;64035;48.358;2.122;2023-02-28T04:55:32;6.22;;;2.13;;
75454;SDS011;64035;48.358;2.122;2023-02-28T04:56:35;6.35;;;1.90;;
75454;SDS011;64035;48.358;2.122;2023-02-28T04:57:38;5.78;;;2.10;;
75454;SDS011;64035;48.358;2.122;2023-02-28T04:58:41;5.25;;;1.98;;
75454;SDS011;64035;48.358;2.122;2023-02-28T04:59:45;6.95;;;2.45;;
75454;SDS011;64035;48.358;2.122;2023-02-28T05:00:52;6.90;;;2.22;;
75454;SDS011;64035;48.358;2.122;2023-02-28T05:01:55;7.07;;;2.20;;
75454;SDS011;64035;48.358;2.122;2023-02-28T05:02:58;6.47;;;2.42;;
75454;SDS011;64035;48.358;2.122;2023-02-28T05:04:02;6.57;;;2.03;;
75454;SDS011;64035;48.358;2.122;2023-02-28T05:05:06;5.90;;;1.85;;
75454;SDS011;64035;48.358;2.122;2023-02-28T05:06:11;7.20;;;2.28;;
75454;SDS011;64035;48.358;2.122;2023-02-28T05:07:14;9.00;;;2.20;;
75454;SDS011;64035;48.358;2.122;2023-02-28T05:08:17;6.47;;;2.17;;
75454;SDS011;64035;48.358;2.122;2023-02-28T05:09:20;6.18;;;2.00;;
75454;SDS011;64035;48.358;2.122;2023-02-28T05:10:23;6.55;;;1.98;;
75454;SDS011;64035;48.358;2.122;2023-02-28T05:11:31;5.82;;;2.10;;
75454;SDS011;64035;48.358;2.122;2023-02-28T05:12:38;5.55;;;1.95;;
75454;SDS011;64035;48.358;2.122;2023-02-28T05:13:41;4.63;;;1.98;;
75454;SDS011;64035;48.358;2.122;2023-02-28T05:14:45;5.47;;;2.25;;
75454;SDS011;64035;48.358;2.122;2023-02-28T05:15:48;6.20;;;2.00;;
75454;SDS011;64035;48.358;2.122;2023-02-28T05:16:51;4.65;;;1.88;;
75454;SDS011;64035;48.358;2.122;2023-02-28T05:17:54;6.22;;;1.90;;
75454;SDS011;64035;48.358;2.122;2023-02-28T05:18:56;5.90;;;1.98;;
75454;SDS011;64035;48.358;2.122;2023-02-28T05:19:59;6.47;;;2.40;;
75454;SDS011;64035;48.358;2.122;2023-02-28T05:21:02;5.60;;;2.22;;
75454;SDS011;64035;48.358;2.122;2023-02-28T05:22:10;8.05;;;2.08;;
75454;SDS011;64035;48.358;2.122;2023-02-28T05:23:16;6.68;;;2.10;;
75454;SDS011;64035;48.358;2.122;2023-02-28T05:24:22;6.25;;;2.17;;
75454;SDS011;64035;48.358;2.122;2023-02-28T05:26:29;4.00;;;1.67;;
75454;SDS011;64035;48.358;2.122;2023-02-28T05:27:32;6.20;;;2.05;;
75454;SDS011;64035;48.358;2.122;2023-02-28T05:28:36;6.22;;;2.10;;
75454;SDS011;64035;48.358;2.122;2023-02-28T05:29:39;8.45;;;2.13;;
75454;SDS011;64035;48.358;2.122;2023-02-28T05:30:44;6.15;;;2.05;;
75454;SDS011;64035;48.358;2.122;2023-02-28T05:31:47;5.65;;;2.03;;
75454;SDS011;64035;48.358;2.122;2023-02-28T05:32:51;5.93;;;2.17;;
75454;SDS011;64035;48.358;2.122;2023-02-28T05:33:54;5.70;;;1.92;;
75454;SDS011;64035;48.358;2.122;2023-02-28T05:34:57;7.93;;;2.38;;
75454;SDS011;64035;48.358;2.122;2023-02-28T05:36:00;6.07;;;1.65;;
75454;SDS011;64035;48.358;2.122;2023-02-28T05:37:04;7.32;;;1.77;;
75454;SDS011;64035;48.358;2.122;2023-02-28T05:38:07;4.85;;;1.90;;
75454;SDS011;64035;48.358;2.122;2023-02-28T05:39:11;6.03;;;2.00;;
75454;SDS011;64035;48.358;2.122;2023-02-28T05:40:15;4.47;;;1.75;;
75454;SDS011;64035;48.358;2.122;2023-02-28T05:41:19;5.78;;;2.10;;
75454;SDS011;64035;48.358;2.122;2023-02-28T05:43:25;6.93;;;1.60;;
75454;SDS011;64035;48.358;2.122;2023-02-28T05:44:29;4.53;;;1.35;;
75454;SDS011;64035;48.358;2.122;2023-02-28T05:45:32;5.80;;;1.80;;
75454;SDS011;64035;48.358;2.122;2023-02-28T05:46:35;4.45;;;1.67;;
75454;SDS011;64035;48.358;2.122;2023-02-28T05:47:38;6.40;;;2.05;;
75454;SDS011;64035;48.358;2.122;2023-02-28T05:48:41;4.75;;;1.80;;
75454;SDS011;64035;48.358;2.122;2023-02-28T05:49:45;6.40;;;2.10;;
75454;SDS011;64035;48.358;2.122;2023-02-28T05:50:48;5.05;;;1.95;;
75454;SDS011;64035;48.358;2.122;2023-02-28T05:51:51;5.68;;;1.83;;
75454;SDS011;64035;48.358;2.122;2023-02-28T05:52:54;7.03;;;2.20;;
75454;SDS011;64035;48.358;2.122;2023-02-28T05:54:00;5.40;;;2.17;;
75454;SDS011;64035;48.358;2.122;2023-02-28T05:55:04;5.15;;;1.63;;
75454;SDS011;64035;48.358;2.122;2023-02-28T05:56:07;5.65;;;2.05;;
75454;SDS011;64035;48.358;2.122;2023-02-28T05:57:10;4.82;;;1.83;;
75454;SDS011;64035;48.358;2.122;2023-02-28T05:58:12;6.60;;;2.30;;
75454;SDS011;64035;48.358;2.122;2023-02-28T05:59:15;7.18;;;1.77;;
75454;SDS011;64035;48.358;2.122;2023-02-28T06:00:18;6.15;;;2.00;;
75454;SDS011;64035;48.358;2.122;2023-02-28T06:01:35;4.97;;;1.75;;
75454;SDS011;64035;48.358;2.122;2023-02-28T06:02:40;5.35;;;1.92;;
75454;SDS011;64035;48.358;2.122;2023-02-28T06:03:43;6.30;;;2.13;;
75454;SDS011;64035;48.358;2.122;2023-02-28T06:04:46;5.45;;;2.00;;
75454;SDS011;64035;48.358;2.122;2023-02-28T06:05:49;7.60;;;2.15;;
75454;SDS011;64035;48.358;2.122;2023-02-28T06:06:53;4.75;;;1.90;;
75454;SDS011;64035;48.358;2.122;2023-02-28T06:07:56;6.13;;;2.13;;
75454;SDS011;64035;48.358;2.122;2023-02-28T06:08:59;5.78;;;1.80;;
75454;SDS011;64035;48.358;2.122;2023-02-28T06:11:06;3.70;;;1.50;;
75454;SDS011;64035;48.358;2.122;2023-02-28T06:12:09;5.25;;;1.70;;
75454;SDS011;64035;48.358;2.122;2023-02-28T06:13:13;5.50;;;1.70;;
75454;SDS011;64035;48.358;2.122;2023-02-28T06:14:17;6.18;;;1.80;;
75454;SDS011;64035;48.358;2.122;2023-02-28T06:15:22;4.70;;;1.65;;
75454;SDS011;64035;48.358;2.122;2023-02-28T06:16:25;4.63;;;1.73;;
75454;SDS011;64035;48.358;2.122;2023-02-28T06:17:30;4.97;;;1.92;;
75454;SDS011;64035;48.358;2.122;2023-02-28T06:18:33;4.35;;;1.83;;
75454;SDS011;64035;48.358;2.122;2023-02-28T06:19:37;7.03;;;1.80;;
75454;SDS011;64035;48.358;2.122;2023-02-28T06:20:41;4.40;;;1.67;;
75454;SDS011;64035;48.358;2.122;2023-02-28T06:22:51;6.15;;;1.73;;
75454;SDS011;64035;48.358;2.122;2023-02-28T06:23:57;5.60;;;1.80;;
75454;SDS011;64035;48.358;2.122;2023-02-28T06:25:01;4.63;;;1.77;;
75454;SDS011;64035;48.358;2.122;2023-02-28T06:26:04;5.20;;;1.80;;
75454;SDS011;64035;48.358;2.122;2023-02-28T06:27:08;7.40;;;2.05;;
75454;SDS011;64035;48.358;2.122;2023-02-28T06:28:11;5.10;;;1.85;;
75454;SDS011;64035;48.358;2.122;2023-02-28T06:29:14;4.95;;;1.85;;
75454;SDS011;64035;48.358;2.122;2023-02-28T06:30:21;5.57;;;2.10;;
75454;SDS011;64035;48.358;2.122;2023-02-28T06:31:27;5.53;;;2.05;;
75454;SDS011;64035;48.358;2.122;2023-02-28T06:34:37;4.47;;;1.40;;
75454;SDS011;64035;48.358;2.122;2023-02-28T06:35:43;4.78;;;1.60;;
75454;SDS011;64035;48.358;2.122;2023-02-28T06:36:49;6.35;;;2.03;;
75454;SDS011;64035;48.358;2.122;2023-02-28T06:37:54;3.90;;;1.40;;
75454;SDS011;64035;48.358;2.122;2023-02-28T06:38:58;3.97;;;1.48;;
75454;SDS011;64035;48.358;2.122;2023-02-28T06:40:01;3.92;;;1.48;;
75454;SDS011;64035;48.358;2.122;2023-02-28T06:42:09;4.35;;;1.80;;
75454;SDS011;64035;48.358;2.122;2023-02-28T06:43:13;4.25;;;1.60;;
75454;SDS011;64035;48.358;2.122;2023-02-28T06:44:16;6.38;;;2.00;;
75454;SDS011;64035;48.358;2.122;2023-02-28T06:45:19;5.68;;;1.60;;
75454;SDS011;64035;48.358;2.122;2023-02-28T06:46:22;6.30;;;1.63;;
75454;SDS011;64035;48.358;2.122;2023-02-28T06:47:26;3.88;;;1.70;;
75454;SDS011;64035;48.358;2.122;2023-02-28T06:48:28;5.95;;;1.90;;
75454;SDS011;64035;48.358;2.122;2023-02-28T06:49:32;5.78;;;1.70;;
75454;SDS011;64035;48.358;2.122;2023-02-28T06:50:37;6.05;;;1.77;;
75454;SDS011;64035;48.358;2.122;2023-02-28T06:51:40;3.15;;;1.35;;
75454;SDS011;64035;48.358;2.122;2023-02-28T06:52:47;4.18;;;1.50;;
75454;SDS011;64035;48.358;2.122;2023-02-28T06:53:50;4.72;;;1.60;;
75454;SDS011;64035;48.358;2.122;2023-02-28T06:54:53;4.70;;;1.58;;
75454;SDS011;64035;48.358;2.122;2023-02-28T06:56:06;4.75;;;1.70;;
75454;SDS011;64035;48.358;2.122;2023-02-28T06:57:11;3.75;;;1.48;;
75454;SDS011;64035;48.358;2.122;2023-02-28T06:58:14;3.53;;;1.50;;
75454;SDS011;64035;48.358;2.122;2023-02-28T06:59:23;4.68;;;1.50;;
75454;SDS011;64035;48.358;2.122;2023-02-28T07:00:26;5.70;;;1.63;;
75454;SDS011;64035;48.358;2.122;2023-02-28T07:01:29;4.55;;;1.50;;
75454;SDS011;64035;48.358;2.122;2023-02-28T07:02:34;7.50;;;1.60;;
75454;SDS011;64035;48.358;2.122;2023-02-28T07:03:39;3.78;;;1.42;;
75454;SDS011;64035;48.358;2.122;2023-02-28T07:04:42;5.22;;;1.50;;
75454;SDS011;64035;48.358;2.122;2023-02-28T07:05:47;3.63;;;1.40;;
75454;SDS011;64035;48.358;2.122;2023-02-28T07:06:50;4.90;;;1.60;;
75454;SDS011;64035;48.358;2.122;2023-02-28T07:07:53;4.95;;;1.60;;
75454;SDS011;64035;48.358;2.122;2023-02-28T07:08:56;4.68;;;1.55;;
75454;SDS011;64035;48.358;2.122;2023-02-28T07:10:00;3.17;;;1.23;;
75454;SDS011;64035;48.358;2.122;2023-02-28T07:11:03;3.47;;;1.15;;
75454;SDS011;64035;48.358;2.122;2023-02-28T07:12:06;4.80;;;1.58;;
75454;SDS011;64035;48.358;2.122;2023-02-28T07:13:09;5.95;;;1.80;;
75454;SDS011;64035;48.358;2.122;2023-02-28T07:14:12;5.22;;;1.52;;
75454;SDS011;64035;48.358;2.122;2023-02-28T07:15:15;4.95;;;1.60;;
75454;SDS011;64035;48.358;2.122;2023-02-28T07:16:19;4.53;;;1.40;;
75454;SDS011;64035;48.358;2.122;2023-02-28T07:17:22;5.03;;;1.50;;
75454;SDS011;64035;48.358;2.122;2023-02-28T07:18:25;5.20;;;1.30;;
75454;SDS011;64035;48.358;2.122;2023-02-28T07:19:29;4.55;;;1.50;;
75454;SDS011;64035;48.358;2.122;2023-02-28T07:20:32;4.78;;;1.42;;
75454;SDS011;64035;48.358;2.122;2023-02-28T07:21:35;3.58;;;1.40;;